createdAt,value
2019-05-20T00:00:02.067Z,70.30
2019-05-20T00:02:05.307Z,70.40
2019-05-20T00:04:08.561Z,70.60
2019-05-20T00:06:11.896Z,70.60
2019-05-20T00:08:15.194Z,70.50
2019-05-20T00:10:18.450Z,70.50
2019-05-20T00:12:21.759Z,70.50
2019-05-20T00:14:24.996Z,70.50
2019-05-20T00:16:28.287Z,70.50
2019-05-20T00:18:31.541Z,70.60
2019-05-20T00:20:34.821Z,70.80
2019-05-20T00:22:38.082Z,70.70
2019-05-20T00:24:41.336Z,70.70
2019-05-20T00:26:44.730Z,70.60
2019-05-20T00:28:48.050Z,70.60
2019-05-20T00:30:51.330Z,70.60
2019-05-20T00:32:54.582Z,70.40
2019-05-20T00:34:57.849Z,70.30
2019-05-20T00:37:01.188Z,70.30
2019-05-20T00:39:13.170Z,70.50
2019-05-20T00:41:16.426Z,70.20
2019-05-20T00:43:19.677Z,70.10
2019-05-20T00:45:22.941Z,70.10
2019-05-20T00:47:26.197Z,69.80
2019-05-20T00:49:29.448Z,69.80
2019-05-20T00:51:32.707Z,70.00
2019-05-20T00:53:36.043Z,69.80
2019-05-20T00:55:39.309Z,69.70
2019-05-20T00:57:42.637Z,69.80
2019-05-20T00:59:45.913Z,69.80
2019-05-20T01:01:49.279Z,69.90
2019-05-20T01:03:52.572Z,69.50
2019-05-20T01:05:55.850Z,69.70
2019-05-20T01:07:59.088Z,69.70
2019-05-20T01:10:02.460Z,69.60
2019-05-20T01:12:05.782Z,70.10
2019-05-20T01:14:09.029Z,69.90
2019-05-20T01:16:12.279Z,69.80
2019-05-20T01:18:15.542Z,69.80
2019-05-20T01:20:18.810Z,69.80
2019-05-20T01:22:22.072Z,69.70
2019-05-20T01:24:25.331Z,69.80
2019-05-20T01:26:28.641Z,69.70
2019-05-20T01:28:31.876Z,70.00
2019-05-20T01:30:35.120Z,69.80
2019-05-20T01:32:38.407Z,69.90
2019-05-20T01:34:41.646Z,69.80
2019-05-20T01:36:44.904Z,69.80
2019-05-20T01:38:48.174Z,69.70
2019-05-20T01:40:51.418Z,69.80
2019-05-20T01:42:54.695Z,69.80
2019-05-20T01:44:57.917Z,69.90
2019-05-20T01:47:01.177Z,70.10
2019-05-20T01:49:04.444Z,70.00
2019-05-20T01:51:07.976Z,69.80
2019-05-20T01:53:11.290Z,70.00
2019-05-20T01:55:14.529Z,69.90
2019-05-20T01:57:17.796Z,69.90
2019-05-20T01:59:21.057Z,69.90
2019-05-20T02:01:24.311Z,70.00
2019-05-20T02:03:31.679Z,69.80
2019-05-20T02:05:32.634Z,69.90
2019-05-20T02:07:35.952Z,70.10
2019-05-20T02:09:39.204Z,70.00
2019-05-20T02:11:42.519Z,70.30
2019-05-20T02:13:52.936Z,70.40
2019-05-20T02:16:00.394Z,70.20
2019-05-20T02:18:03.658Z,70.20
2019-05-20T02:20:07.108Z,70.10
2019-05-20T02:22:10.420Z,70.30
2019-05-20T02:24:13.685Z,70.20
2019-05-20T02:26:16.938Z,70.10
2019-05-20T02:28:20.202Z,70.40
2019-05-20T02:30:23.456Z,70.40
2019-05-20T02:32:26.698Z,70.40
2019-05-20T02:34:29.962Z,70.60
2019-05-20T02:36:33.266Z,70.70
2019-05-20T02:38:36.524Z,70.50
2019-05-20T02:40:39.798Z,70.60
2019-05-20T02:42:43.034Z,70.40
2019-05-20T02:44:46.308Z,70.10
2019-05-20T02:46:49.577Z,70.30
2019-05-20T02:48:52.865Z,70.40
2019-05-20T02:50:56.111Z,70.50
2019-05-20T02:52:59.355Z,70.60
2019-05-20T02:55:02.637Z,70.70
2019-05-20T02:57:05.884Z,70.70
2019-05-20T02:59:09.127Z,70.80
2019-05-20T03:01:12.383Z,70.90
2019-05-20T03:03:15.626Z,70.80
2019-05-20T03:05:18.895Z,70.70
2019-05-20T03:07:22.145Z,70.60
2019-05-20T03:09:25.453Z,70.70
2019-05-20T03:11:28.730Z,70.70
2019-05-20T03:13:31.980Z,70.70
2019-05-20T03:15:35.237Z,70.80
2019-05-20T03:17:38.488Z,70.70
2019-05-20T03:19:41.744Z,70.70
2019-05-20T03:21:45.008Z,70.70
2019-05-20T03:23:48.245Z,70.70
2019-05-20T03:25:51.510Z,70.90
2019-05-20T03:27:54.747Z,71.00
2019-05-20T03:29:58.013Z,71.00
2019-05-20T03:32:01.330Z,70.80
2019-05-20T03:34:04.626Z,71.10
2019-05-20T03:36:08.152Z,71.10
2019-05-20T03:38:11.405Z,71.30
2019-05-20T03:40:14.643Z,71.40
2019-05-20T03:42:17.918Z,71.40
2019-05-20T03:44:21.185Z,71.50
2019-05-20T03:46:24.471Z,71.60
2019-05-20T03:48:27.770Z,71.90
2019-05-20T03:50:31.010Z,72.00
2019-05-20T03:52:34.276Z,71.70
2019-05-20T03:54:37.518Z,71.90
2019-05-20T03:56:40.784Z,72.00
2019-05-20T03:58:44.114Z,72.10
2019-05-20T04:00:47.732Z,72.30
2019-05-20T04:02:51.037Z,72.20
2019-05-20T04:05:02.418Z,72.10
2019-05-20T04:06:59.271Z,72.00
2019-05-20T04:09:02.523Z,71.90
2019-05-20T04:11:05.811Z,71.80
2019-05-20T04:13:09.080Z,72.00
2019-05-20T04:15:12.325Z,72.10
2019-05-20T04:17:15.663Z,72.40
2019-05-20T04:19:18.917Z,72.20
2019-05-20T04:21:22.160Z,72.30
2019-05-20T04:23:25.435Z,73.20
2019-05-20T04:25:28.687Z,72.40
2019-05-20T04:27:31.940Z,72.40
2019-05-20T04:29:35.189Z,72.60
2019-05-20T04:31:38.517Z,72.70
2019-05-20T04:33:41.773Z,72.80
2019-05-20T04:35:49.279Z,72.90
2019-05-20T04:37:50.013Z,72.90
2019-05-20T04:39:53.239Z,72.90
2019-05-20T04:41:56.497Z,72.90
2019-05-20T04:43:59.779Z,72.80
2019-05-20T04:46:03.024Z,72.70
2019-05-20T04:48:06.284Z,72.80
2019-05-20T04:50:09.530Z,73.00
2019-05-20T04:52:12.768Z,73.10
2019-05-20T04:54:16.049Z,73.40
2019-05-20T04:56:19.361Z,73.50
2019-05-20T04:58:22.638Z,73.20
2019-05-20T05:00:48.768Z,74.20
2019-05-20T05:02:51.998Z,73.30
2019-05-20T05:04:55.281Z,73.30
2019-05-20T05:06:58.541Z,73.40
2019-05-20T05:09:01.799Z,73.50
2019-05-20T05:11:05.030Z,73.60
2019-05-20T05:13:08.390Z,73.70
2019-05-20T05:15:11.698Z,73.90
2019-05-20T05:17:14.938Z,74.00
2019-05-20T05:19:18.198Z,74.00
2019-05-20T05:21:21.488Z,74.00
2019-05-20T05:23:24.749Z,74.00
2019-05-20T05:25:28.014Z,74.10
2019-05-20T05:27:31.266Z,74.00
2019-05-20T05:29:34.521Z,74.00
2019-05-20T05:31:37.754Z,74.10
2019-05-20T05:33:41.014Z,74.00
2019-05-20T05:35:52.974Z,74.00
2019-05-20T05:37:49.375Z,74.10
2019-05-20T05:39:52.613Z,73.80
2019-05-20T05:41:55.908Z,74.00
2019-05-20T05:43:59.163Z,73.70
2019-05-20T05:46:02.410Z,74.00
2019-05-20T05:48:05.662Z,73.60
2019-05-20T05:50:08.914Z,73.60
2019-05-20T05:52:12.174Z,73.20
2019-05-20T05:54:15.409Z,73.10
2019-05-20T05:56:18.688Z,73.20
2019-05-20T05:58:21.925Z,72.90
2019-05-20T06:00:25.258Z,73.00
2019-05-20T06:02:28.497Z,72.50
2019-05-20T06:04:31.759Z,72.20
2019-05-20T06:06:35.014Z,72.40
2019-05-20T06:08:38.301Z,72.40
2019-05-20T06:10:41.610Z,72.70
2019-05-20T06:12:44.854Z,72.10
2019-05-20T06:14:48.189Z,72.50
2019-05-20T06:16:51.451Z,72.00
2019-05-20T06:18:54.705Z,72.10
2019-05-20T06:20:57.954Z,72.00
2019-05-20T06:23:01.221Z,72.00
2019-05-20T06:25:05.575Z,71.90
2019-05-20T06:27:08.848Z,71.90
2019-05-20T06:29:12.074Z,71.80
2019-05-20T06:31:15.345Z,71.80
2019-05-20T06:33:18.609Z,71.70
2019-05-20T06:35:21.876Z,71.50
2019-05-20T06:37:32.641Z,71.50
2019-05-20T06:39:35.894Z,71.30
2019-05-20T06:41:40.407Z,71.30
2019-05-20T06:43:43.658Z,71.20
2019-05-20T06:45:46.899Z,70.90
2019-05-20T06:47:50.183Z,70.90
2019-05-20T06:49:53.431Z,70.90
2019-05-20T06:51:56.702Z,71.10
2019-05-20T06:54:00.001Z,71.00
2019-05-20T06:56:03.295Z,71.00
2019-05-20T06:58:06.533Z,70.80
2019-05-20T07:00:11.430Z,70.70
2019-05-20T07:02:14.706Z,70.70
2019-05-20T07:04:17.949Z,70.60
2019-05-20T07:06:21.199Z,70.50
2019-05-20T07:08:24.466Z,70.50
2019-05-20T07:10:27.738Z,70.00
2019-05-20T07:12:40.507Z,70.50
2019-05-20T07:14:36.147Z,70.30
2019-05-20T07:16:39.472Z,70.30
2019-05-20T07:18:42.734Z,70.30
2019-05-20T07:20:45.986Z,70.00
2019-05-20T07:22:55.661Z,70.10
2019-05-20T07:24:54.266Z,70.10
2019-05-20T07:26:57.509Z,70.00
2019-05-20T07:29:00.783Z,70.20
2019-05-20T07:31:04.042Z,69.80
2019-05-20T07:33:07.352Z,69.80
2019-05-20T07:35:10.584Z,69.70
2019-05-20T07:37:13.824Z,69.40
2019-05-20T07:39:17.097Z,69.80
2019-05-20T07:41:20.347Z,69.70
2019-05-20T07:43:23.623Z,69.50
2019-05-20T07:45:27.149Z,69.80
2019-05-20T07:47:30.474Z,69.50
2019-05-20T07:49:33.733Z,69.50
2019-05-20T07:51:37.051Z,69.40
2019-05-20T07:53:40.364Z,68.30
2019-05-20T07:55:52.394Z,68.80
2019-05-20T07:57:55.640Z,68.40
2019-05-20T07:59:58.954Z,68.50
2019-05-20T08:02:02.261Z,68.50
2019-05-20T08:04:05.520Z,68.70
2019-05-20T08:06:08.945Z,68.80
2019-05-20T08:08:12.191Z,68.80
2019-05-20T08:10:15.481Z,68.40
2019-05-20T08:12:18.807Z,68.20
2019-05-20T08:14:24.112Z,68.50
2019-05-20T08:16:27.181Z,68.40
2019-05-20T08:18:30.502Z,68.50
2019-05-20T08:20:33.791Z,68.70
2019-05-20T08:22:38.755Z,68.70
2019-05-20T08:24:42.033Z,68.80
2019-05-20T08:26:45.359Z,68.60
2019-05-20T08:28:48.726Z,68.40
2019-05-20T08:30:52.007Z,68.60
2019-05-20T08:32:55.299Z,68.80
2019-05-20T08:34:58.957Z,69.10
2019-05-20T08:37:02.298Z,69.60
2019-05-20T08:39:07.201Z,69.10
2019-05-20T08:41:10.455Z,69.00
2019-05-20T08:43:13.713Z,69.00
2019-05-20T08:45:17.024Z,69.10
2019-05-20T08:47:20.346Z,68.70
2019-05-20T08:49:23.618Z,68.80
2019-05-20T08:51:26.864Z,68.70
2019-05-20T08:53:30.146Z,68.70
2019-05-20T08:55:33.456Z,68.10
2019-05-20T08:57:36.725Z,68.20
2019-05-20T08:59:40.234Z,67.80
2019-05-20T09:01:43.493Z,67.80
2019-05-20T09:03:46.738Z,67.80
2019-05-20T09:05:50.034Z,67.40
2019-05-20T09:08:02.893Z,67.10
2019-05-20T09:09:58.281Z,67.10
2019-05-20T09:12:01.588Z,66.70
2019-05-20T09:14:04.883Z,66.70
2019-05-20T09:16:08.177Z,66.80
2019-05-20T09:18:11.441Z,67.80
2019-05-20T09:20:14.698Z,67.10
2019-05-20T09:22:17.974Z,67.00
2019-05-20T09:24:21.258Z,66.50
2019-05-20T09:26:24.698Z,66.60
2019-05-20T09:28:27.963Z,67.00
2019-05-20T09:30:31.282Z,66.50
2019-05-20T09:32:34.575Z,66.80
2019-05-20T09:34:37.836Z,66.70
2019-05-20T09:36:41.371Z,66.60
2019-05-20T09:38:44.630Z,66.90
2019-05-20T09:40:48.558Z,66.70
2019-05-20T09:42:51.842Z,66.90
2019-05-20T09:44:55.217Z,67.00
2019-05-20T09:46:58.546Z,66.80
2019-05-20T09:49:01.785Z,66.50
2019-05-20T09:51:05.062Z,66.50
2019-05-20T09:53:08.390Z,66.20
2019-05-20T09:55:11.634Z,66.40
2019-05-20T09:57:14.897Z,66.40
2019-05-20T09:59:18.150Z,66.60
2019-05-20T10:01:21.396Z,66.50
2019-05-20T10:03:24.658Z,66.70
2019-05-20T10:05:27.925Z,66.90
2019-05-20T10:07:31.348Z,66.80
2019-05-20T10:09:34.586Z,66.70
2019-05-20T10:11:37.873Z,66.60
2019-05-20T10:13:41.232Z,66.60
2019-05-20T10:15:44.577Z,66.40
2019-05-20T10:17:47.863Z,66.50
2019-05-20T10:19:51.138Z,66.60
2019-05-20T10:21:54.477Z,66.40
2019-05-20T10:23:57.744Z,66.50
2019-05-20T10:26:00.999Z,65.30
2019-05-20T10:28:04.305Z,65.60
2019-05-20T10:30:07.997Z,65.70
2019-05-20T10:32:11.246Z,65.50
2019-05-20T10:34:14.542Z,65.40
2019-05-20T10:36:17.803Z,65.50
2019-05-20T10:38:21.110Z,65.50
2019-05-20T10:40:24.426Z,65.20
2019-05-20T10:42:27.709Z,65.70
2019-05-20T10:44:31.053Z,65.50
2019-05-20T10:46:34.299Z,65.90
2019-05-20T10:48:37.575Z,66.10
2019-05-20T10:50:40.838Z,66.40
2019-05-20T10:52:44.083Z,65.80
2019-05-20T10:54:47.361Z,66.00
2019-05-20T10:56:50.635Z,65.60
2019-05-20T10:58:53.906Z,65.80
2019-05-20T11:01:02.455Z,65.80
2019-05-20T11:03:02.220Z,65.70
2019-05-20T11:05:06.325Z,65.80
2019-05-20T11:07:09.647Z,66.10
2019-05-20T11:09:14.435Z,66.30
2019-05-20T11:11:17.914Z,66.90
2019-05-20T11:13:21.227Z,66.90
2019-05-20T11:15:24.535Z,66.10
2019-05-20T11:17:27.787Z,65.60
2019-05-20T11:19:31.051Z,65.50
2019-05-20T11:21:34.342Z,66.80
2019-05-20T11:23:37.672Z,66.30
2019-05-20T11:25:40.959Z,66.20
2019-05-20T11:27:44.275Z,65.30
2019-05-20T11:29:47.594Z,64.80
2019-05-20T11:31:50.844Z,64.50
2019-05-20T11:33:57.537Z,64.50
2019-05-20T11:35:59.142Z,64.60
2019-05-20T11:38:02.516Z,64.50
2019-05-20T11:40:08.053Z,64.70
2019-05-20T11:42:11.582Z,65.30
2019-05-20T11:44:14.830Z,64.80
2019-05-20T11:46:18.164Z,64.90
2019-05-20T11:48:21.409Z,64.90
2019-05-20T11:50:24.658Z,64.50
2019-05-20T11:52:28.088Z,64.40
2019-05-20T11:54:31.692Z,64.40
2019-05-20T11:56:35.531Z,64.60
2019-05-20T11:58:38.796Z,64.60
2019-05-20T12:00:42.065Z,64.40
2019-05-20T12:02:45.397Z,63.90
2019-05-20T12:04:48.654Z,64.00
2019-05-20T12:06:51.948Z,64.10
2019-05-20T12:08:55.194Z,64.00
2019-05-20T12:10:58.469Z,63.60
2019-05-20T12:13:01.705Z,64.10
2019-05-20T12:15:06.636Z,64.30
2019-05-20T12:17:10.721Z,63.80
2019-05-20T12:19:14.050Z,64.30
2019-05-20T12:21:17.370Z,64.00
2019-05-20T12:23:20.620Z,64.10
2019-05-20T12:25:23.894Z,64.10
2019-05-20T12:27:27.239Z,64.80
2019-05-20T12:29:30.481Z,63.80
2019-05-20T12:31:33.780Z,64.30
2019-05-20T12:33:37.016Z,64.20
2019-05-20T12:35:40.274Z,64.10
2019-05-20T12:37:45.656Z,63.90
2019-05-20T12:40:04.284Z,63.90
2019-05-20T12:41:53.565Z,64.20
2019-05-20T12:44:10.911Z,64.40
2019-05-20T12:46:01.790Z,64.70
2019-05-20T12:48:05.085Z,64.70
2019-05-20T12:50:08.321Z,64.60
2019-05-20T12:52:11.644Z,64.90
2019-05-20T12:54:15.020Z,65.00
2019-05-20T12:56:19.698Z,64.90
2019-05-20T12:58:23.329Z,64.80
2019-05-20T13:00:26.578Z,64.60
2019-05-20T13:02:29.847Z,64.70
2019-05-20T13:04:33.186Z,64.80
2019-05-20T13:06:36.438Z,64.70
2019-05-20T13:08:39.722Z,64.60
2019-05-20T13:10:43.029Z,64.40
2019-05-20T13:12:46.349Z,64.20
2019-05-20T13:14:49.662Z,63.80
2019-05-20T13:16:52.956Z,63.80
2019-05-20T13:18:56.594Z,63.70
2019-05-20T13:20:59.974Z,63.30
2019-05-20T13:23:05.768Z,63.20
2019-05-20T13:25:08.697Z,63.50
2019-05-20T13:27:11.982Z,63.70
2019-05-20T13:29:15.323Z,64.00
2019-05-20T13:31:18.619Z,63.90
2019-05-20T13:33:21.883Z,64.10
2019-05-20T13:35:25.238Z,64.20
2019-05-20T13:37:28.490Z,64.20
2019-05-20T13:39:31.765Z,64.20
2019-05-20T13:41:35.003Z,64.50
2019-05-20T13:43:38.380Z,64.50
2019-05-20T13:45:41.615Z,64.20
2019-05-20T13:47:45.116Z,64.30
2019-05-20T13:49:48.588Z,64.50
2019-05-20T13:51:52.003Z,64.40
2019-05-20T13:53:55.417Z,64.10
2019-05-20T13:55:58.661Z,64.10
2019-05-20T13:58:02.076Z,63.70
2019-05-20T14:00:07.104Z,64.20
2019-05-20T14:02:10.382Z,63.90
2019-05-20T14:04:13.674Z,63.90
2019-05-20T14:06:17.008Z,64.10
2019-05-20T14:08:20.325Z,63.60
2019-05-20T14:10:23.587Z,63.40
2019-05-20T14:12:26.857Z,63.30
2019-05-20T14:14:30.135Z,63.20
2019-05-20T14:16:33.501Z,63.30
2019-05-20T14:18:36.763Z,63.20
2019-05-20T14:20:40.043Z,62.60
2019-05-20T14:22:43.558Z,62.90
2019-05-20T14:24:46.845Z,62.80
2019-05-20T14:26:50.147Z,62.80
2019-05-20T14:28:53.498Z,63.20
2019-05-20T14:30:56.803Z,62.90
2019-05-20T14:33:00.115Z,63.00
2019-05-20T14:35:05.134Z,62.80
2019-05-20T14:37:08.458Z,62.90
2019-05-20T14:39:11.747Z,63.00
2019-05-20T14:41:21.521Z,62.70
2019-05-20T14:43:20.014Z,63.20
2019-05-20T14:45:23.309Z,63.50
2019-05-20T14:47:26.668Z,63.50
2019-05-20T14:49:30.006Z,63.40
2019-05-20T14:51:33.309Z,63.50
2019-05-20T14:53:36.565Z,64.20
2019-05-20T14:55:42.545Z,63.50
2019-05-20T14:57:44.915Z,63.30
2019-05-20T14:59:48.341Z,63.70
2019-05-20T15:01:51.635Z,63.80
2019-05-20T15:03:54.896Z,63.80
2019-05-20T15:05:58.199Z,64.10
2019-05-20T15:08:01.445Z,64.30
2019-05-20T15:10:09.260Z,64.10
2019-05-20T15:12:12.555Z,64.10
2019-05-20T15:14:15.831Z,64.10
2019-05-20T15:16:19.188Z,64.20
2019-05-20T15:18:22.438Z,64.00
2019-05-20T15:20:25.713Z,64.10
2019-05-20T15:22:29.002Z,64.40
2019-05-20T15:24:32.313Z,64.40
2019-05-20T15:26:35.601Z,64.50
2019-05-20T15:28:38.858Z,64.60
2019-05-20T15:30:42.149Z,64.50
2019-05-20T15:32:45.411Z,64.70
2019-05-20T15:34:48.687Z,64.80
2019-05-20T15:36:52.110Z,65.00
2019-05-20T15:38:55.387Z,65.20
2019-05-20T15:40:58.659Z,65.20
2019-05-20T15:43:01.954Z,65.20
2019-05-20T15:45:08.334Z,65.00
2019-05-20T15:47:11.779Z,65.10
2019-05-20T15:49:15.081Z,65.00
2019-05-20T15:51:18.330Z,65.20
2019-05-20T15:53:21.636Z,65.70
2019-05-20T15:55:24.968Z,67.00
2019-05-20T15:57:28.265Z,66.10
2019-05-20T15:59:44.981Z,66.70
2019-05-20T16:01:36.588Z,67.00
2019-05-20T16:03:39.869Z,67.10
2019-05-20T16:05:43.161Z,66.90
2019-05-20T16:07:46.470Z,67.10
2019-05-20T16:09:49.781Z,66.80
2019-05-20T16:11:53.072Z,67.20
2019-05-20T16:13:56.426Z,67.50
2019-05-20T16:15:59.794Z,67.60
2019-05-20T16:18:03.289Z,67.80
2019-05-20T16:20:07.306Z,67.60
2019-05-20T16:22:10.716Z,67.90
2019-05-20T16:24:14.018Z,68.10
2019-05-20T16:26:17.376Z,67.80
2019-05-20T16:28:20.806Z,68.00
2019-05-20T16:30:24.111Z,68.50
2019-05-20T16:32:27.380Z,68.50
2019-05-20T16:34:30.674Z,68.50
2019-05-20T16:36:33.969Z,68.90
2019-05-20T16:38:37.270Z,68.70
2019-05-20T16:40:40.547Z,69.00
2019-05-20T16:42:43.871Z,69.30
2019-05-20T16:44:47.162Z,69.60
2019-05-20T16:46:50.466Z,69.60
2019-05-20T16:48:53.757Z,69.00
2019-05-20T16:50:57.026Z,69.10
2019-05-20T16:53:00.314Z,69.20
2019-05-20T16:55:04.169Z,69.30
2019-05-20T16:57:07.474Z,68.90
2019-05-20T16:59:10.731Z,69.00
2019-05-20T17:01:13.994Z,69.40
2019-05-20T17:03:17.271Z,69.70
2019-05-20T17:05:20.592Z,69.70
2019-05-20T17:07:23.833Z,69.50
2019-05-20T17:09:27.118Z,69.90
2019-05-20T17:11:30.384Z,69.90
2019-05-20T17:13:33.675Z,69.70
2019-05-20T17:15:36.942Z,70.00
2019-05-20T17:17:40.218Z,69.90
2019-05-20T17:19:43.505Z,70.10
2019-05-20T17:21:46.846Z,69.40
2019-05-20T17:23:50.095Z,70.20
2019-05-20T17:25:53.366Z,69.40
2019-05-20T17:27:56.636Z,69.20
2019-05-20T17:29:59.997Z,69.50
2019-05-20T17:32:03.332Z,69.70
2019-05-20T17:34:06.687Z,69.70
2019-05-20T17:36:10.051Z,70.00
2019-05-20T17:38:13.309Z,70.10
2019-05-20T17:40:16.758Z,70.10
2019-05-20T17:42:20.049Z,69.80
2019-05-20T17:44:23.379Z,69.50
2019-05-20T17:46:26.674Z,69.50
2019-05-20T17:48:29.945Z,69.60
2019-05-20T17:50:33.276Z,69.30
2019-05-20T17:52:36.633Z,69.30
2019-05-20T17:54:39.881Z,69.50
2019-05-20T17:56:43.167Z,69.70
2019-05-20T17:58:46.431Z,69.70
2019-05-20T18:00:49.743Z,70.00
2019-05-20T18:02:53.098Z,70.30
2019-05-20T18:04:56.459Z,70.00
2019-05-20T18:06:59.853Z,70.20
2019-05-20T18:09:04.193Z,70.20
2019-05-20T18:11:07.493Z,70.00
2019-05-20T18:13:10.880Z,70.10
2019-05-20T18:15:14.326Z,70.30
2019-05-20T18:17:17.612Z,70.30
2019-05-20T18:19:20.956Z,70.20
2019-05-20T18:21:24.234Z,70.20
2019-05-20T18:23:27.507Z,70.10
2019-05-20T18:25:30.825Z,70.40
2019-05-20T18:27:34.075Z,70.70
2019-05-20T18:29:37.347Z,70.60
2019-05-20T18:31:40.755Z,70.70
2019-05-20T18:33:44.134Z,70.90
2019-05-20T18:35:47.457Z,71.30
2019-05-20T18:37:50.863Z,71.40
2019-05-20T18:39:54.252Z,71.50
2019-05-20T18:41:57.532Z,71.50
2019-05-20T18:44:00.919Z,71.20
2019-05-20T18:46:04.254Z,71.20
2019-05-20T18:48:07.517Z,71.00
2019-05-20T18:50:10.810Z,71.10
2019-05-20T18:52:14.195Z,71.30
2019-05-20T18:54:17.584Z,71.20
2019-05-20T18:56:20.858Z,71.50
2019-05-20T18:58:24.128Z,71.50
2019-05-20T19:00:27.933Z,71.40
2019-05-20T19:02:31.258Z,71.20
2019-05-20T19:04:34.723Z,71.30
2019-05-20T19:06:38.028Z,71.30
2019-05-20T19:08:41.428Z,71.40
2019-05-20T19:10:44.709Z,71.80
2019-05-20T19:12:48.048Z,71.70
2019-05-20T19:14:51.404Z,71.70
2019-05-20T19:16:54.763Z,71.80
2019-05-20T19:18:58.115Z,71.70
2019-05-20T19:21:01.475Z,71.80
2019-05-20T19:23:04.751Z,71.80
2019-05-20T19:25:08.051Z,71.90
2019-05-20T19:27:11.533Z,72.00
2019-05-20T19:29:14.804Z,72.20
2019-05-20T19:31:18.183Z,72.00
2019-05-20T19:33:21.771Z,72.10
2019-05-20T19:35:25.248Z,71.90
2019-05-20T19:37:28.580Z,72.00
2019-05-20T19:39:31.867Z,72.00
2019-05-20T19:41:35.194Z,72.10
2019-05-20T19:43:38.491Z,72.10
2019-05-20T19:45:41.779Z,72.00
2019-05-20T19:47:45.043Z,71.90
2019-05-20T19:49:48.575Z,71.70
2019-05-20T19:51:51.998Z,71.60
2019-05-20T19:53:55.296Z,71.70
2019-05-20T19:55:58.577Z,72.00
2019-05-20T19:58:01.938Z,72.30
2019-05-20T20:00:07.077Z,72.20
2019-05-20T20:02:17.307Z,72.30
2019-05-20T20:04:15.425Z,72.40
2019-05-20T20:06:18.745Z,72.30
2019-05-20T20:08:22.086Z,72.30
2019-05-20T20:10:25.438Z,72.60
2019-05-20T20:12:28.773Z,72.80
2019-05-20T20:14:32.133Z,72.90
2019-05-20T20:16:35.416Z,72.90
2019-05-20T20:18:38.701Z,72.90
2019-05-20T20:20:42.002Z,72.70
2019-05-20T20:22:45.260Z,72.90
2019-05-20T20:24:48.565Z,73.10
2019-05-20T20:26:51.847Z,73.00
2019-05-20T20:28:55.119Z,73.00
2019-05-20T20:30:58.372Z,72.90
2019-05-20T20:33:01.696Z,73.00
2019-05-20T20:35:06.619Z,73.20
2019-05-20T20:37:09.910Z,73.40
2019-05-20T20:39:13.184Z,73.50
2019-05-20T20:41:16.474Z,73.70
2019-05-20T20:43:19.718Z,73.60
2019-05-20T20:45:23.018Z,73.50
2019-05-20T20:47:40.483Z,73.60
2019-05-20T20:49:31.346Z,73.80
2019-05-20T20:51:34.679Z,73.80
2019-05-20T20:53:37.978Z,73.80
2019-05-20T20:55:41.276Z,73.80
2019-05-20T20:57:44.536Z,73.70
2019-05-20T20:59:50.216Z,73.60
2019-05-20T21:01:56.785Z,73.60
2019-05-20T21:03:57.843Z,73.60
2019-05-20T21:06:01.192Z,73.60
2019-05-20T21:08:04.475Z,73.80
2019-05-20T21:10:07.724Z,73.80
2019-05-20T21:12:10.986Z,73.50
2019-05-20T21:14:14.295Z,73.60
2019-05-20T21:16:17.587Z,73.60
2019-05-20T21:18:20.922Z,73.60
2019-05-20T21:20:24.248Z,73.40
2019-05-20T21:22:27.546Z,73.30
2019-05-20T21:24:30.793Z,73.50
2019-05-20T21:26:34.067Z,73.40
2019-05-20T21:28:37.415Z,73.60
2019-05-20T21:30:40.667Z,73.70
2019-05-20T21:32:43.978Z,73.90
2019-05-20T21:34:47.400Z,73.80
2019-05-20T21:36:50.662Z,73.80
2019-05-20T21:38:53.979Z,74.10
2019-05-20T21:40:57.242Z,73.90
2019-05-20T21:43:00.552Z,73.40
2019-05-20T21:45:05.562Z,73.40
2019-05-20T21:47:11.822Z,73.50
2019-05-20T21:49:15.150Z,73.70
2019-05-20T21:51:18.430Z,73.80
2019-05-20T21:53:21.715Z,73.80
2019-05-20T21:55:24.964Z,73.90
2019-05-20T21:57:28.230Z,73.80
2019-05-20T21:59:31.502Z,74.00
2019-05-20T22:01:34.928Z,74.20
2019-05-20T22:03:38.319Z,73.90
2019-05-20T22:05:41.587Z,73.90
2019-05-20T22:07:46.497Z,73.80
2019-05-20T22:09:54.744Z,73.70
2019-05-20T22:11:58.049Z,73.70
2019-05-20T22:14:01.377Z,73.80
2019-05-20T22:16:04.674Z,74.00
2019-05-20T22:18:08.022Z,74.10
2019-05-20T22:20:11.391Z,74.10
2019-05-20T22:22:19.170Z,73.90
2019-05-20T22:24:22.510Z,73.70
2019-05-20T22:26:25.752Z,73.90
2019-05-20T22:28:29.027Z,74.20
2019-05-20T22:30:32.292Z,74.40
2019-05-20T22:32:35.544Z,74.30
2019-05-20T22:34:52.444Z,74.70
2019-05-20T22:36:43.843Z,74.80
2019-05-20T22:38:47.185Z,74.70
2019-05-20T22:40:50.439Z,74.80
2019-05-20T22:42:53.688Z,74.50
2019-05-20T22:44:56.978Z,74.60
2019-05-20T22:47:00.229Z,74.70
2019-05-20T22:49:03.563Z,74.90
2019-05-20T22:51:06.817Z,74.80
2019-05-20T22:53:10.065Z,75.20
2019-05-20T22:55:13.333Z,75.00
2019-05-20T22:57:16.593Z,75.00
2019-05-20T22:59:19.830Z,74.90
2019-05-20T23:01:23.108Z,75.10
2019-05-20T23:03:26.401Z,74.90
2019-05-20T23:05:29.719Z,74.80
2019-05-20T23:07:32.960Z,74.70
2019-05-20T23:09:36.207Z,74.80
2019-05-20T23:11:39.466Z,74.80
2019-05-20T23:13:42.742Z,74.90
2019-05-20T23:15:46.887Z,74.80
2019-05-20T23:17:50.186Z,74.80
2019-05-20T23:19:53.582Z,74.80
2019-05-20T23:21:57.043Z,74.70
2019-05-20T23:24:00.649Z,74.90
2019-05-20T23:26:04.221Z,75.00
2019-05-20T23:28:07.578Z,75.00
2019-05-20T23:30:10.885Z,74.90
2019-05-20T23:32:14.161Z,75.00
2019-05-20T23:34:17.738Z,75.20
2019-05-20T23:36:20.995Z,74.50
2019-05-20T23:38:24.261Z,74.80
2019-05-20T23:40:27.503Z,75.00
2019-05-20T23:42:30.762Z,74.80
2019-05-20T23:44:34.007Z,74.80
2019-05-20T23:46:37.277Z,75.00
2019-05-20T23:48:40.549Z,74.80
2019-05-20T23:50:43.802Z,74.90
2019-05-20T23:52:47.102Z,74.90
2019-05-20T23:54:50.344Z,74.80
2019-05-20T23:56:53.597Z,74.90
2019-05-20T23:58:56.871Z,74.80
